createdAt,value
2022-09-06T00:00:27.405Z,4.15
2022-09-06T00:02:55.913Z,3.95
2022-09-06T00:05:24.041Z,4.15
2022-09-06T00:07:53.447Z,4.03
2022-09-06T00:10:21.598Z,3.80
2022-09-06T00:12:49.796Z,3.92
2022-09-06T00:15:18.442Z,4.10
2022-09-06T00:17:46.553Z,4.25
2022-09-06T00:20:14.843Z,4.13
2022-09-06T00:22:43.115Z,4.25
2022-09-06T00:25:12.554Z,4.30
2022-09-06T00:27:40.768Z,3.75
2022-09-06T00:30:11.135Z,3.60
2022-09-06T00:32:39.165Z,3.97
2022-09-06T00:35:07.919Z,4.20
2022-09-06T00:37:35.939Z,3.85
2022-09-06T00:40:04.890Z,3.60
2022-09-06T00:42:34.472Z,3.83
2022-09-06T00:45:02.964Z,4.22
2022-09-06T00:47:31.778Z,3.90
2022-09-06T00:50:02.093Z,4.00
2022-09-06T00:52:31.394Z,3.72
2022-09-06T00:55:00.625Z,3.63
2022-09-06T00:57:32.096Z,3.90
2022-09-06T01:00:03.177Z,4.03
2022-09-06T01:02:31.675Z,4.07
2022-09-06T01:05:00.292Z,3.70
2022-09-06T01:07:45.267Z,3.88
2022-09-06T01:10:54.284Z,4.13
2022-09-06T01:13:38.647Z,4.00
2022-09-06T01:16:19.071Z,4.45
2022-09-06T01:19:15.284Z,4.15
2022-09-06T01:21:51.749Z,3.95
2022-09-06T01:24:45.154Z,4.80
2022-09-06T01:27:53.830Z,3.80
2022-09-06T01:30:22.368Z,4.20
2022-09-06T01:33:01.046Z,4.18
2022-09-06T01:35:36.113Z,4.15
2022-09-06T01:38:05.339Z,3.58
2022-09-06T01:40:36.367Z,4.20
2022-09-06T01:43:11.094Z,3.95
2022-09-06T01:45:52.122Z,4.30
2022-09-06T01:48:33.786Z,4.22
2022-09-06T01:51:16.001Z,3.88
2022-09-06T01:54:08.837Z,4.40
2022-09-06T01:56:50.802Z,4.47
2022-09-06T02:02:10.199Z,4.30
2022-09-06T02:04:46.938Z,4.32
2022-09-06T02:07:21.834Z,4.05
2022-09-06T02:09:56.329Z,4.15
2022-09-06T02:12:27.893Z,3.97
2022-09-06T02:15:02.618Z,4.00
2022-09-06T02:17:35.311Z,4.22
2022-09-06T02:20:07.623Z,4.20
2022-09-06T02:22:42.504Z,3.90
2022-09-06T02:25:14.160Z,4.07
2022-09-06T02:27:42.212Z,4.05
2022-09-06T02:30:13.346Z,4.50
2022-09-06T02:32:47.495Z,4.10
2022-09-06T02:35:17.522Z,4.22
2022-09-06T02:37:46.228Z,4.18
2022-09-06T02:40:14.406Z,4.10
2022-09-06T02:42:42.799Z,3.90
2022-09-06T02:45:12.482Z,4.50
2022-09-06T02:47:40.645Z,4.35
2022-09-06T02:50:09.735Z,4.40
2022-09-06T02:52:37.757Z,4.13
2022-09-06T02:55:07.485Z,4.40
2022-09-06T02:57:35.528Z,4.60
2022-09-06T03:02:34.342Z,4.57
2022-09-06T03:05:02.954Z,4.60
2022-09-06T03:07:30.951Z,4.40
2022-09-06T03:09:59.020Z,4.65
2022-09-06T03:12:27.106Z,4.55
2022-09-06T03:14:55.275Z,4.10
2022-09-06T03:17:23.316Z,4.18
2022-09-06T03:19:53.338Z,4.80
2022-09-06T03:22:21.740Z,4.57
2022-09-06T03:24:49.861Z,4.32
2022-09-06T03:27:17.891Z,4.13
2022-09-06T03:29:45.958Z,4.97
2022-09-06T03:32:13.993Z,4.53
2022-09-06T03:34:42.045Z,4.65
2022-09-06T03:37:11.524Z,4.50
2022-09-06T03:39:39.613Z,4.90
2022-09-06T03:42:08.197Z,4.45
2022-09-06T03:44:36.282Z,4.10
2022-09-06T03:47:05.377Z,4.70
2022-09-06T03:49:33.395Z,4.60
2022-09-06T03:52:01.606Z,4.95
2022-09-06T03:54:31.046Z,4.82
2022-09-06T03:56:59.140Z,4.82
2022-09-06T03:59:27.159Z,4.30
2022-09-06T04:01:55.275Z,5.15
2022-09-06T05:21:15.868Z,5.07
2022-09-06T05:23:44.713Z,4.72
2022-09-06T05:26:12.862Z,5.22
2022-09-06T05:28:41.038Z,4.60
2022-09-06T05:31:10.914Z,4.47
2022-09-06T05:33:39.429Z,5.07
2022-09-06T05:36:08.818Z,4.85
2022-09-06T05:38:38.182Z,4.30
2022-09-06T05:41:06.540Z,4.95
2022-09-06T05:43:34.605Z,5.05
2022-09-06T05:46:02.799Z,4.57
2022-09-06T05:48:36.119Z,5.05
2022-09-06T05:51:07.761Z,5.43
2022-09-06T05:53:38.615Z,5.38
2022-09-06T05:56:07.916Z,5.32
2022-09-06T05:58:36.333Z,5.40
2022-09-06T06:01:09.290Z,5.43
2022-09-06T06:03:37.480Z,5.00
2022-09-06T06:06:05.935Z,4.72
2022-09-06T06:08:34.054Z,5.53
2022-09-06T06:11:03.883Z,5.03
2022-09-06T06:13:34.964Z,5.35
2022-09-06T06:16:04.354Z,5.43
2022-09-06T06:18:32.585Z,4.57
2022-09-06T06:21:12.512Z,5.30
2022-09-06T06:23:41.813Z,5.00
2022-09-06T06:26:12.681Z,5.13
2022-09-06T06:28:41.550Z,5.30
2022-09-06T06:31:12.130Z,5.82
2022-09-06T06:33:41.073Z,5.57
2022-09-06T06:36:22.375Z,5.15
2022-09-06T06:38:53.337Z,5.70
2022-09-06T06:41:26.335Z,5.13
2022-09-06T06:43:55.249Z,5.00
2022-09-06T06:46:25.334Z,4.82
2022-09-06T06:48:55.192Z,5.35
2022-09-06T06:51:25.563Z,5.68
2022-09-06T06:53:54.130Z,5.78
2022-09-06T06:56:26.366Z,5.53
2022-09-06T06:58:57.674Z,5.57
2022-09-06T07:01:27.911Z,5.30
2022-09-06T07:03:56.217Z,5.55
2022-09-06T07:09:13.448Z,5.35
2022-09-06T07:11:43.349Z,5.00
2022-09-06T07:14:11.447Z,5.13
2022-09-06T07:16:39.544Z,5.22
2022-09-06T07:19:08.322Z,5.13
2022-09-06T07:24:10.412Z,5.47
2022-09-06T07:26:40.392Z,5.43
2022-09-06T07:29:10.216Z,6.22
2022-09-06T07:34:28.120Z,5.38
2022-09-06T07:36:56.952Z,5.15
2022-09-06T07:39:25.506Z,4.90
2022-09-06T07:41:53.619Z,5.40
2022-09-06T07:44:23.028Z,5.40
2022-09-06T07:46:52.692Z,5.25
2022-09-06T07:49:20.982Z,5.00
2022-09-06T07:51:49.978Z,5.47
2022-09-06T07:54:33.316Z,5.60
2022-09-06T07:57:01.385Z,5.38
2022-09-06T07:59:30.792Z,4.93
2022-09-06T08:01:59.161Z,5.63
2022-09-06T08:04:27.201Z,5.47
2022-09-06T08:09:45.341Z,5.00
2022-09-06T08:12:13.409Z,5.05
2022-09-06T08:14:42.808Z,5.60
2022-09-06T08:17:11.032Z,4.95
2022-09-06T08:19:39.124Z,5.50
2022-09-06T08:22:07.217Z,5.32
2022-09-06T08:24:36.293Z,5.43
2022-09-06T08:27:07.690Z,5.35
2022-09-06T08:29:36.308Z,5.18
2022-09-06T08:32:05.919Z,5.13
2022-09-06T08:34:34.070Z,5.00
2022-09-06T08:37:02.595Z,4.80
2022-09-06T08:39:30.736Z,4.47
2022-09-06T08:42:03.685Z,4.50
2022-09-06T08:47:27.907Z,4.32
2022-09-06T08:50:02.137Z,4.45
2022-09-06T08:53:16.774Z,4.07
2022-09-06T08:55:54.154Z,3.38
2022-09-06T08:58:47.669Z,3.50
2022-09-06T09:01:23.076Z,3.67
2022-09-06T09:03:56.906Z,3.40
2022-09-06T09:06:26.229Z,3.67
2022-09-06T09:09:03.509Z,3.40
2022-09-06T09:11:33.520Z,3.58
2022-09-06T09:14:09.717Z,3.35
2022-09-06T09:16:37.836Z,3.97
2022-09-06T09:19:09.364Z,3.45
2022-09-06T09:21:41.037Z,3.30
2022-09-06T09:24:13.283Z,3.55
2022-09-06T09:26:51.422Z,3.30
2022-09-06T09:29:23.931Z,3.60
2022-09-06T09:31:56.528Z,3.50
2022-09-06T09:34:35.523Z,2.90
2022-09-06T09:40:08.279Z,2.90
2022-09-06T09:42:38.539Z,3.25
2022-09-06T09:45:23.939Z,3.30
2022-09-06T09:47:51.999Z,3.08
2022-09-06T09:50:31.396Z,3.08
2022-09-06T09:53:10.476Z,3.03
2022-09-06T09:55:39.846Z,3.28
2022-09-06T09:58:09.818Z,2.85
2022-09-06T10:00:40.745Z,3.20
2022-09-06T10:03:18.057Z,2.63
2022-09-06T10:06:03.323Z,2.90
2022-09-06T10:08:34.632Z,3.45
2022-09-06T10:11:02.696Z,3.20
2022-09-06T10:13:33.514Z,2.78
2022-09-06T10:16:03.275Z,2.92
2022-09-06T10:18:35.584Z,2.85
2022-09-06T10:21:07.296Z,3.30
2022-09-06T10:26:54.180Z,3.10
2022-09-06T10:32:15.623Z,2.92
2022-09-06T10:35:05.651Z,3.38
2022-09-06T10:38:07.571Z,2.92
2022-09-06T10:40:44.776Z,3.30
2022-09-06T10:43:19.615Z,3.30
2022-09-06T10:45:58.617Z,2.90
2022-09-06T10:48:32.141Z,3.03
2022-09-06T10:51:09.523Z,3.45
2022-09-06T10:53:48.227Z,3.30
2022-09-06T10:56:22.879Z,3.40
2022-09-06T11:02:01.809Z,3.53
2022-09-06T11:07:30.915Z,3.25
2022-09-06T11:10:07.790Z,3.28
2022-09-06T11:12:44.527Z,3.30
2022-09-06T11:15:16.060Z,3.63
2022-09-06T11:17:50.911Z,3.50
2022-09-06T11:20:31.282Z,3.45
2022-09-06T11:23:38.818Z,3.22
2022-09-06T11:26:43.825Z,3.38
2022-09-06T11:29:20.438Z,2.10
2022-09-06T11:34:55.205Z,1.80
2022-09-06T11:37:29.409Z,2.22
2022-09-06T11:43:48.629Z,2.00
2022-09-06T11:47:00.047Z,2.50
2022-09-06T11:49:42.300Z,2.50
2022-09-06T11:53:12.953Z,2.10
2022-09-06T11:55:44.560Z,2.75
2022-09-06T11:58:28.920Z,1.90
2022-09-06T12:01:41.899Z,2.05
2022-09-06T12:04:11.750Z,2.00
2022-09-06T12:06:42.937Z,3.20
2022-09-06T12:09:32.631Z,3.38
2022-09-06T12:12:02.341Z,3.17
2022-09-06T12:14:39.618Z,3.60
2022-09-06T12:17:46.000Z,3.33
2022-09-06T12:21:02.722Z,2.70
2022-09-06T12:23:44.369Z,3.08
2022-09-06T12:26:13.727Z,2.70
2022-09-06T12:28:51.393Z,3.13
2022-09-06T12:31:35.924Z,2.90
2022-09-06T12:34:21.062Z,3.08
2022-09-06T12:36:55.412Z,3.67
2022-09-06T12:39:24.250Z,2.80
2022-09-06T12:41:57.013Z,2.70
2022-09-06T12:44:34.653Z,2.78
2022-09-06T12:47:12.942Z,2.92
2022-09-06T12:49:42.682Z,2.90
2022-09-06T12:52:14.202Z,3.05
2022-09-06T12:54:50.082Z,2.20
2022-09-06T12:57:24.462Z,2.03
2022-09-06T12:59:55.254Z,1.73
2022-09-06T13:05:06.115Z,2.30
2022-09-06T13:07:45.561Z,1.88
2022-09-06T13:10:17.078Z,2.20
2022-09-06T13:12:49.040Z,2.10
2022-09-06T13:15:21.548Z,2.10
2022-09-06T13:17:50.525Z,2.22
2022-09-06T13:20:30.175Z,2.45
2022-09-06T13:23:10.530Z,2.65
2022-09-06T13:25:50.002Z,2.65
2022-09-06T13:28:30.162Z,3.25
2022-09-06T13:31:11.232Z,3.30
2022-09-06T13:33:40.586Z,3.00
2022-09-06T13:36:34.149Z,3.30
2022-09-06T13:41:41.270Z,3.00
2022-09-06T13:44:23.377Z,3.03
2022-09-06T13:46:55.304Z,2.53
2022-09-06T13:49:24.598Z,2.60
2022-09-06T13:52:00.318Z,2.80
2022-09-06T13:54:29.563Z,2.40
2022-09-06T13:56:58.059Z,2.10
2022-09-06T13:59:26.763Z,1.90
2022-09-06T14:02:03.264Z,2.60
2022-09-06T14:04:32.629Z,3.38
2022-09-06T14:07:02.618Z,3.20
2022-09-06T14:09:31.152Z,2.90
2022-09-06T14:11:59.575Z,2.88
2022-09-06T14:14:28.142Z,2.95
2022-09-06T14:16:57.644Z,3.03
2022-09-06T14:19:29.061Z,2.30
2022-09-06T14:21:57.311Z,2.88
2022-09-06T14:24:26.957Z,2.28
2022-09-06T14:26:55.056Z,2.33
2022-09-06T14:29:23.847Z,2.95
2022-09-06T14:31:52.577Z,3.10
2022-09-06T14:34:21.713Z,3.20
2022-09-06T14:36:49.761Z,2.55
2022-09-06T14:39:17.875Z,3.15
2022-09-06T14:41:47.532Z,3.20
2022-09-06T14:44:15.578Z,3.22
2022-09-06T14:46:43.827Z,3.13
2022-09-06T14:49:11.937Z,3.20
2022-09-06T14:51:40.769Z,3.03
2022-09-06T14:54:12.147Z,2.60
2022-09-06T14:56:41.952Z,2.95
2022-09-06T14:59:12.673Z,2.77
2022-09-06T15:04:11.827Z,2.53
2022-09-06T15:06:47.354Z,2.70
2022-09-06T15:09:18.202Z,3.13
2022-09-06T15:11:50.577Z,2.33
2022-09-06T15:14:23.565Z,2.33
2022-09-06T15:16:56.731Z,2.20
2022-09-06T15:19:26.795Z,1.88
2022-09-06T15:21:55.976Z,2.20
2022-09-06T15:24:24.699Z,1.80
2022-09-06T15:26:53.591Z,1.95
2022-09-06T15:29:23.439Z,2.13
2022-09-06T15:31:51.912Z,2.30
2022-09-06T15:34:21.267Z,2.30
2022-09-06T15:36:50.013Z,1.92
2022-09-06T15:39:18.675Z,2.60
2022-09-06T15:41:47.007Z,3.40
2022-09-06T15:44:18.897Z,3.28
2022-09-06T15:46:51.266Z,3.30
2022-09-06T15:49:27.030Z,3.30
2022-09-06T15:51:57.593Z,3.47
2022-09-06T15:54:46.141Z,3.42
2022-09-06T15:57:16.352Z,3.30
2022-09-06T15:59:44.606Z,3.33
2022-09-06T16:02:14.648Z,3.70
2022-09-06T16:04:42.987Z,3.47
2022-09-06T16:07:11.563Z,3.15
2022-09-06T16:09:40.181Z,3.50
2022-09-06T16:12:09.292Z,3.22
2022-09-06T16:14:38.727Z,3.72
2022-09-06T16:17:07.388Z,3.80
2022-09-06T16:19:37.391Z,3.75
2022-09-06T16:22:05.690Z,4.03
2022-09-06T16:24:34.190Z,3.83
2022-09-06T16:27:02.677Z,3.67
2022-09-06T16:29:31.846Z,3.38
2022-09-06T16:32:00.612Z,3.85
2022-09-06T16:34:28.787Z,3.95
2022-09-06T16:36:58.431Z,3.63
2022-09-06T16:39:26.991Z,3.38
2022-09-06T16:41:55.110Z,3.55
2022-09-06T16:44:23.325Z,3.45
2022-09-06T16:46:52.967Z,3.80
2022-09-06T16:49:21.618Z,3.47
2022-09-06T16:51:51.198Z,3.28
2022-09-06T16:54:21.525Z,3.35
2022-09-06T16:56:49.622Z,3.45
2022-09-06T16:59:18.952Z,3.90
2022-09-06T17:01:47.377Z,3.83
2022-09-06T17:04:15.912Z,3.47
2022-09-06T17:06:45.630Z,3.55
2022-09-06T17:09:16.429Z,3.75
2022-09-06T17:11:46.872Z,3.67
2022-09-06T17:14:14.987Z,4.63
2022-09-06T17:17:01.052Z,3.60
2022-09-06T17:19:29.948Z,4.10
2022-09-06T17:21:58.399Z,3.35
2022-09-06T17:24:27.344Z,3.97
2022-09-06T17:26:56.771Z,4.07
2022-09-06T17:29:26.607Z,3.72
2022-09-06T17:31:56.163Z,3.95
2022-09-06T17:34:24.533Z,4.03
2022-09-06T17:36:53.194Z,3.92
2022-09-06T17:39:22.125Z,4.10
2022-09-06T17:41:53.562Z,3.83
2022-09-06T17:49:41.535Z,3.58
2022-09-06T17:52:09.911Z,3.70
2022-09-06T17:54:38.001Z,3.63
2022-09-06T17:57:06.073Z,3.67
2022-09-06T17:59:36.250Z,3.58
2022-09-06T18:02:05.757Z,3.97
2022-09-06T18:04:34.270Z,3.53
2022-09-06T18:07:02.366Z,4.35
2022-09-06T18:09:30.576Z,3.42
2022-09-06T18:11:58.917Z,3.85
2022-09-06T18:14:28.844Z,4.00
2022-09-06T18:16:58.439Z,3.70
2022-09-06T18:19:27.414Z,3.40
2022-09-06T18:21:57.106Z,4.00
2022-09-06T18:24:25.426Z,3.92
2022-09-06T18:26:53.518Z,3.92
2022-09-06T18:29:21.829Z,3.90
2022-09-06T18:31:53.420Z,3.92
2022-09-06T18:34:23.074Z,4.13
2022-09-06T18:36:51.221Z,3.80
2022-09-06T18:39:20.321Z,3.97
2022-09-06T18:42:07.074Z,3.88
2022-09-06T18:44:36.491Z,4.40
2022-09-06T18:47:07.296Z,3.90
2022-09-06T18:49:40.577Z,4.10
2022-09-06T18:52:11.443Z,3.83
2022-09-06T18:54:39.449Z,4.72
2022-09-06T18:57:07.663Z,4.05
2022-09-06T18:59:35.761Z,4.35
2022-09-06T19:02:04.040Z,4.13
2022-09-06T19:04:32.263Z,4.20
2022-09-06T19:07:03.913Z,4.47
2022-09-06T19:11:59.937Z,3.80
2022-09-06T19:14:28.164Z,4.50
2022-09-06T19:16:56.261Z,4.20
2022-09-06T19:19:24.497Z,4.20
2022-09-06T19:21:52.599Z,4.20
2022-09-06T19:24:24.559Z,4.78
2022-09-06T19:26:55.148Z,4.65
2022-09-06T19:29:23.779Z,4.75
2022-09-06T19:31:52.906Z,5.28
2022-09-06T19:34:21.725Z,5.03
2022-09-06T19:36:50.026Z,4.80
2022-09-06T19:39:18.566Z,4.40
2022-09-06T19:41:48.114Z,4.53
2022-09-06T19:44:17.746Z,4.75
2022-09-06T19:46:46.967Z,4.57
2022-09-06T19:49:17.041Z,4.82
2022-09-06T19:51:46.394Z,5.05
2022-09-06T19:54:15.597Z,4.68
2022-09-06T19:56:44.237Z,4.80
2022-09-06T19:59:15.591Z,4.70
2022-09-06T20:01:46.639Z,4.65
2022-09-06T20:04:15.806Z,4.78
2022-09-06T20:06:44.311Z,4.38
2022-09-06T20:09:12.890Z,4.80
2022-09-06T20:11:42.830Z,4.60
2022-09-06T20:14:11.657Z,4.70
2022-09-06T20:16:42.681Z,4.65
2022-09-06T20:19:14.450Z,4.40
2022-09-06T20:24:11.020Z,4.85
2022-09-06T20:26:39.504Z,4.72
2022-09-06T20:29:08.059Z,4.60
2022-09-06T20:31:38.219Z,4.43
2022-09-06T20:34:07.965Z,4.70
2022-09-06T20:36:36.519Z,4.40
2022-09-06T20:39:05.438Z,4.70
2022-09-06T20:41:33.818Z,4.93
2022-09-06T20:44:02.681Z,4.15
2022-09-06T20:46:35.051Z,4.63
2022-09-06T20:49:04.727Z,4.45
2022-09-06T20:51:36.443Z,4.55
2022-09-06T20:54:06.609Z,4.50
2022-09-06T20:56:37.854Z,4.63
2022-09-06T20:59:08.534Z,4.15
2022-09-06T21:01:40.650Z,4.65
2022-09-06T21:04:10.603Z,4.60
2022-09-06T21:06:41.241Z,4.38
2022-09-06T21:09:11.900Z,4.72
2022-09-06T21:11:40.631Z,4.75
2022-09-06T21:14:09.389Z,4.53
2022-09-06T21:16:39.408Z,4.30
2022-09-06T21:19:11.612Z,4.75
2022-09-06T21:21:44.346Z,4.57
2022-09-06T21:24:13.252Z,4.85
2022-09-06T21:26:43.893Z,4.53
2022-09-06T21:29:11.951Z,4.90
2022-09-06T21:31:39.981Z,4.22
2022-09-06T21:34:16.860Z,4.30
2022-09-06T21:36:46.718Z,4.30
2022-09-06T21:39:17.398Z,4.97
2022-09-06T21:41:46.460Z,3.95
2022-09-06T21:44:14.745Z,4.47
2022-09-06T21:46:43.278Z,4.47
2022-09-06T21:49:13.953Z,4.50
2022-09-06T21:51:42.778Z,4.53
2022-09-06T21:54:12.447Z,4.82
2022-09-06T21:56:41.060Z,4.93
2022-09-06T21:59:10.080Z,4.70
2022-09-06T22:01:39.969Z,4.70
2022-09-06T22:04:08.817Z,4.72
2022-09-06T22:06:37.779Z,4.45
2022-09-06T22:09:10.705Z,4.53
2022-09-06T22:11:43.671Z,4.90
2022-09-06T22:14:13.893Z,4.88
2022-09-06T22:16:42.741Z,4.72
2022-09-06T22:19:11.954Z,4.40
2022-09-06T22:21:40.457Z,4.78
2022-09-06T22:24:12.787Z,4.88
2022-09-06T22:26:42.943Z,4.63
2022-09-06T22:29:13.712Z,5.10
2022-09-06T22:31:42.587Z,4.90
2022-09-06T22:34:11.487Z,4.63
2022-09-06T22:36:40.189Z,4.32
2022-09-06T22:39:09.544Z,4.18
2022-09-06T22:41:40.819Z,4.38
2022-09-06T22:44:09.088Z,3.85
2022-09-06T22:46:38.251Z,3.75
2022-09-06T22:49:06.408Z,3.95
2022-09-06T22:51:34.485Z,4.30
2022-09-06T22:54:02.605Z,3.97
2022-09-06T22:56:30.652Z,4.50
2022-09-06T22:59:01.172Z,4.20
2022-09-06T23:01:29.617Z,4.40
2022-09-06T23:04:01.105Z,4.47
2022-09-06T23:06:29.189Z,4.05
2022-09-06T23:08:59.920Z,3.60
2022-09-06T23:11:28.685Z,3.60
2022-09-06T23:13:59.566Z,4.10
2022-09-06T23:16:29.588Z,3.53
2022-09-06T23:18:58.217Z,3.83
2022-09-06T23:21:27.473Z,3.55
2022-09-06T23:23:57.844Z,3.50
2022-09-06T23:26:29.433Z,3.58
2022-09-06T23:28:58.259Z,3.92
2022-09-06T23:31:29.652Z,3.53
2022-09-06T23:33:59.986Z,3.47
2022-09-06T23:36:28.835Z,3.53
2022-09-06T23:38:57.633Z,3.65
2022-09-06T23:41:26.483Z,4.07
2022-09-06T23:43:54.857Z,3.63
2022-09-06T23:46:22.973Z,3.55
2022-09-06T23:48:52.640Z,3.60
2022-09-06T23:51:20.767Z,4.18
2022-09-06T23:53:49.136Z,3.70
2022-09-06T23:56:17.158Z,3.58
2022-09-06T23:58:45.195Z,4.40
